EGPD

Aberdeen Dyce Airport

Aberdeen, United Kingdom
METAR EGPD 240120Z AUTO 18011KT 7000 OVC003 07/06 Q1028 NOSIG
Observed Flight Rules
May-24 @ 01:20 UTC (30 minutes ago) Instrument Flight Rules
Wind Visibility Clouds
180° at 11 knots 7,001 meters
  • Overcast at 300' AGL
Temperatures Readings
Current 7°C / 45°F
Dewpoint 6°C / 43°F
Humidity 93%
Altimeter 30.35" Hg
Pressure 1028 hPa
Elevation 65
METAR EGPD 240120Z AUTO 18011KT 7000 OVC003 07/06 Q1028 NOSIG
Observed Flight Rules
May-24 @ 01:20 UTC
(30 minutes ago)
LIFR
Wind Visibility
180° at 11 knots 7,001 meters
Clouds
  • Overcast at 300' AGL
Temperature Dewpoint
7°C / 45°F 6°C / 43°F
Humidity Altimeter Pressure
93% 30.35" Hg 1028 hPa